createdAt,value
2023-03-24T00:00:34.243Z,77.88
2023-03-24T00:02:38.044Z,77.64
2023-03-24T00:04:42.977Z,77.61
2023-03-24T00:06:49.531Z,77.43
2023-03-24T00:08:53.440Z,77.21
2023-03-24T00:11:00.454Z,77.16
2023-03-24T00:13:06.304Z,76.97
2023-03-24T00:15:13.594Z,77.06
2023-03-24T00:17:18.502Z,77.11
2023-03-24T00:19:22.894Z,77.05
2023-03-24T00:21:27.525Z,76.69
2023-03-24T00:23:32.813Z,76.99
2023-03-24T00:25:36.658Z,77.01
2023-03-24T00:27:42.127Z,77.33
2023-03-24T00:29:46.292Z,77.76
2023-03-24T00:31:51.598Z,77.55
2023-03-24T00:33:55.663Z,77.56
2023-03-24T00:35:59.884Z,77.97
2023-03-24T00:38:04.114Z,77.69
2023-03-24T00:40:12.652Z,78.01
2023-03-24T00:42:16.704Z,77.69
2023-03-24T00:44:21.739Z,78.08
2023-03-24T00:46:29.955Z,78.01
2023-03-24T00:48:35.490Z,78.06
2023-03-24T00:50:39.021Z,78.45
2023-03-24T00:52:44.517Z,78.07
2023-03-24T00:54:48.725Z,77.90
2023-03-24T00:56:56.279Z,78.12
2023-03-24T00:59:02.494Z,78.04
2023-03-24T01:01:08.814Z,77.61
2023-03-24T01:03:12.874Z,77.85
2023-03-24T01:05:17.778Z,77.82
2023-03-24T01:07:21.704Z,78.10
2023-03-24T01:09:25.520Z,78.23
2023-03-24T01:11:29.938Z,78.22
2023-03-24T01:13:34.531Z,78.74
2023-03-24T01:15:38.570Z,78.46
2023-03-24T01:17:43.932Z,78.69
2023-03-24T01:19:51.185Z,78.95
2023-03-24T01:21:55.413Z,78.98
2023-03-24T01:23:59.308Z,79.33
2023-03-24T01:26:09.099Z,79.74
2023-03-24T01:28:13.586Z,80.17
2023-03-24T01:30:18.802Z,80.17
2023-03-24T01:32:22.322Z,79.44
2023-03-24T01:34:27.720Z,79.72
2023-03-24T01:36:31.905Z,79.47
2023-03-24T01:38:36.365Z,79.66
2023-03-24T01:40:42.049Z,79.52
2023-03-24T01:42:45.803Z,79.44
2023-03-24T01:44:50.643Z,79.44
2023-03-24T01:46:54.357Z,79.40
2023-03-24T01:49:01.441Z,79.21
2023-03-24T01:51:11.508Z,79.30
2023-03-24T01:53:15.702Z,79.63
2023-03-24T01:55:20.490Z,79.79
2023-03-24T01:57:31.188Z,79.71
2023-03-24T01:59:38.154Z,79.87
2023-03-24T02:01:52.507Z,79.59
2023-03-24T02:04:11.363Z,80.27
2023-03-24T02:06:20.365Z,79.96
2023-03-24T02:08:29.932Z,80.33
2023-03-24T02:10:36.293Z,80.70
2023-03-24T02:12:39.858Z,81.04
2023-03-24T02:14:44.614Z,81.11
2023-03-24T02:17:23.543Z,81.53
2023-03-24T02:20:12.141Z,81.64
2023-03-24T02:22:54.401Z,81.77
2023-03-24T02:25:27.773Z,81.97
2023-03-24T02:27:53.221Z,81.29
2023-03-24T02:30:34.101Z,81.56
2023-03-24T02:33:26.171Z,81.42
2023-03-24T02:36:02.329Z,81.29
2023-03-24T02:39:09.979Z,80.81
2023-03-24T02:41:22.149Z,80.83
2023-03-24T02:43:38.908Z,80.61
2023-03-24T02:45:50.625Z,80.72
2023-03-24T02:48:09.281Z,81.12
2023-03-24T02:50:24.601Z,80.73
2023-03-24T02:52:38.794Z,80.83
2023-03-24T02:54:49.442Z,80.76
2023-03-24T02:56:59.040Z,80.65
2023-03-24T02:59:37.752Z,81.05
2023-03-24T03:01:57.806Z,80.71
2023-03-24T03:04:23.338Z,80.97
2023-03-24T03:06:29.900Z,80.88
2023-03-24T03:08:35.879Z,80.78
2023-03-24T03:10:41.041Z,81.20
2023-03-24T03:12:50.556Z,80.66
2023-03-24T03:14:58.471Z,80.84
2023-03-24T03:17:07.348Z,81.11
2023-03-24T03:19:18.213Z,81.08
2023-03-24T03:21:26.877Z,81.03
2023-03-24T03:23:35.930Z,80.81
2023-03-24T03:25:43.397Z,80.95
2023-03-24T03:27:49.033Z,80.80
2023-03-24T03:29:57.690Z,80.68
2023-03-24T03:32:07.882Z,80.50
2023-03-24T03:34:19.097Z,80.38
2023-03-24T03:36:28.054Z,80.44
2023-03-24T03:38:36.060Z,80.43
2023-03-24T03:40:44.250Z,80.56
2023-03-24T03:42:55.453Z,80.97
2023-03-24T03:44:58.884Z,80.52
2023-03-24T03:47:02.379Z,80.67
2023-03-24T03:49:15.004Z,80.87
2023-03-24T03:51:18.514Z,80.95
2023-03-24T03:53:40.454Z,80.93
2023-03-24T03:55:45.618Z,81.23
2023-03-24T03:57:49.760Z,81.38
2023-03-24T04:00:08.793Z,81.00
2023-03-24T04:02:31.234Z,81.35
2023-03-24T04:05:05.797Z,81.19
2023-03-24T04:07:38.497Z,81.55
2023-03-24T04:10:19.874Z,81.30
2023-03-24T04:12:42.227Z,81.64
2023-03-24T04:15:20.842Z,81.51
2023-03-24T04:17:39.005Z,81.45
2023-03-24T04:19:57.127Z,81.00
2023-03-24T04:22:14.389Z,81.07
2023-03-24T04:24:41.261Z,81.26
2023-03-24T04:26:55.895Z,80.89
2023-03-24T04:29:10.033Z,80.48
2023-03-24T04:31:23.572Z,80.69
2023-03-24T04:33:31.390Z,80.41
2023-03-24T04:35:40.950Z,80.55
2023-03-24T04:37:56.299Z,80.63
2023-03-24T04:40:08.489Z,80.22
2023-03-24T04:42:18.122Z,80.25
2023-03-24T04:44:22.627Z,80.23
2023-03-24T04:46:59.414Z,79.77
2023-03-24T04:49:04.149Z,80.51
2023-03-24T04:51:11.274Z,79.97
2023-03-24T04:53:44.130Z,80.25
2023-03-24T04:56:06.612Z,80.23
2023-03-24T04:58:36.541Z,80.62
2023-03-24T05:00:40.194Z,80.65
2023-03-24T05:02:45.810Z,80.65
2023-03-24T05:04:55.444Z,80.95
2023-03-24T05:07:11.541Z,80.37
2023-03-24T05:09:16.129Z,80.63
2023-03-24T05:11:19.973Z,81.08
2023-03-24T05:13:32.987Z,81.31
2023-03-24T05:15:38.522Z,81.15
2023-03-24T05:18:07.239Z,81.46
2023-03-24T05:20:11.893Z,81.30
2023-03-24T05:22:18.428Z,81.31
2023-03-24T05:24:22.406Z,81.38
2023-03-24T05:26:26.602Z,81.24
2023-03-24T05:28:50.219Z,81.49
2023-03-24T05:30:54.459Z,81.83
2023-03-24T05:33:31.352Z,82.10
2023-03-24T05:35:36.167Z,82.08
2023-03-24T05:37:39.512Z,82.06
2023-03-24T05:39:43.021Z,82.18
2023-03-24T05:42:09.385Z,82.04
2023-03-24T05:44:12.693Z,82.46
2023-03-24T05:46:17.012Z,82.91
2023-03-24T05:48:21.933Z,82.57
2023-03-24T05:50:43.126Z,82.64
2023-03-24T05:52:46.679Z,82.70
2023-03-24T05:55:17.179Z,82.84
2023-03-24T05:57:21.675Z,82.73
2023-03-24T05:59:52.265Z,82.56
2023-03-24T06:02:14.616Z,82.70
2023-03-24T06:04:25.417Z,82.73
2023-03-24T06:06:34.418Z,82.18
2023-03-24T06:08:38.421Z,82.71
2023-03-24T06:10:41.918Z,82.13
2023-03-24T06:12:46.365Z,82.33
2023-03-24T06:14:49.654Z,82.17
2023-03-24T06:16:54.245Z,82.18
2023-03-24T06:18:57.569Z,82.44
2023-03-24T06:21:32.517Z,82.70
2023-03-24T06:23:39.115Z,82.73
2023-03-24T06:25:47.732Z,82.54
2023-03-24T06:28:04.280Z,82.11
2023-03-24T06:30:11.069Z,82.22
2023-03-24T06:32:15.588Z,82.86
2023-03-24T06:34:19.271Z,82.24
2023-03-24T06:36:35.865Z,82.24
2023-03-24T06:38:42.958Z,82.26
2023-03-24T06:40:47.474Z,81.97
2023-03-24T06:42:51.570Z,82.12
2023-03-24T06:44:54.998Z,81.97
2023-03-24T06:46:58.435Z,81.59
2023-03-24T06:49:02.796Z,81.98
2023-03-24T06:51:06.935Z,82.05
2023-03-24T06:53:10.735Z,81.88
2023-03-24T06:55:16.653Z,82.11
2023-03-24T06:57:19.988Z,82.02
2023-03-24T06:59:42.026Z,82.51
2023-03-24T07:01:45.729Z,82.53
2023-03-24T07:04:02.989Z,83.18
2023-03-24T07:06:22.952Z,83.01
2023-03-24T07:08:38.234Z,82.93
2023-03-24T07:10:44.949Z,82.97
2023-03-24T07:12:48.926Z,83.01
2023-03-24T07:14:52.345Z,82.94
2023-03-24T07:16:56.074Z,82.50
2023-03-24T07:19:15.925Z,82.15
2023-03-24T07:21:22.853Z,82.44
2023-03-24T07:23:27.789Z,82.04
2023-03-24T07:25:41.634Z,82.08
2023-03-24T07:28:02.481Z,81.90
2023-03-24T07:30:07.560Z,82.08
2023-03-24T07:32:15.856Z,81.45
2023-03-24T07:34:19.404Z,81.71
2023-03-24T07:36:22.777Z,82.02
2023-03-24T07:38:26.400Z,81.23
2023-03-24T07:40:35.234Z,80.91
2023-03-24T07:42:38.723Z,80.90
2023-03-24T07:45:02.273Z,80.48
2023-03-24T07:47:05.775Z,79.70
2023-03-24T07:49:19.012Z,79.77
2023-03-24T07:51:38.462Z,78.76
2023-03-24T07:54:02.018Z,78.76
2023-03-24T07:56:24.272Z,78.57
2023-03-24T07:58:31.558Z,78.09
2023-03-24T08:00:59.008Z,77.81
2023-03-24T08:03:14.595Z,78.50
2023-03-24T08:05:56.442Z,78.64
2023-03-24T08:08:15.344Z,78.36
2023-03-24T08:10:20.736Z,78.25
2023-03-24T08:12:24.325Z,78.64
2023-03-24T08:14:27.974Z,78.34
2023-03-24T08:16:32.941Z,79.25
2023-03-24T08:18:38.897Z,78.52
2023-03-24T08:20:42.150Z,79.09
2023-03-24T08:22:50.138Z,78.17
2023-03-24T08:24:53.522Z,78.33
2023-03-24T08:26:58.830Z,78.01
2023-03-24T08:29:02.238Z,78.13
2023-03-24T08:31:06.283Z,77.49
2023-03-24T08:33:13.104Z,77.04
2023-03-24T08:35:19.307Z,76.18
2023-03-24T08:37:23.098Z,75.69
2023-03-24T08:39:26.780Z,74.88
2023-03-24T08:41:35.259Z,74.31
2023-03-24T08:43:39.222Z,73.30
2023-03-24T08:45:43.083Z,72.28
2023-03-24T08:47:46.863Z,71.79
2023-03-24T08:49:52.303Z,71.37
2023-03-24T08:51:56.979Z,70.48
2023-03-24T08:54:02.064Z,69.97
2023-03-24T08:56:05.381Z,69.26
2023-03-24T08:58:08.949Z,70.26
2023-03-24T09:00:15.979Z,69.27
2023-03-24T09:02:19.868Z,68.67
2023-03-24T09:04:23.451Z,67.78
2023-03-24T09:06:28.721Z,67.19
2023-03-24T09:08:32.474Z,67.10
2023-03-24T09:10:36.536Z,67.15
2023-03-24T09:12:41.231Z,67.25
2023-03-24T09:14:50.534Z,66.72
2023-03-24T09:16:54.215Z,66.24
2023-03-24T09:18:58.079Z,65.67
2023-03-24T09:21:02.276Z,65.44
2023-03-24T09:23:07.456Z,65.14
2023-03-24T09:25:14.374Z,65.36
2023-03-24T09:27:18.830Z,64.46
2023-03-24T09:29:22.361Z,63.86
2023-03-24T09:31:26.329Z,63.37
2023-03-24T09:33:31.184Z,63.08
2023-03-24T09:35:34.911Z,63.13
2023-03-24T09:37:40.138Z,62.74
2023-03-24T09:39:45.538Z,61.65
2023-03-24T09:41:52.276Z,61.67
2023-03-24T09:44:01.160Z,61.74
2023-03-24T09:46:08.094Z,62.29
2023-03-24T09:48:19.410Z,62.03
2023-03-24T09:50:26.891Z,61.92
2023-03-24T09:52:36.675Z,61.36
2023-03-24T09:54:49.122Z,61.17
2023-03-24T09:56:53.401Z,60.22
2023-03-24T09:59:06.234Z,59.55
2023-03-24T10:01:15.823Z,58.48
2023-03-24T10:03:23.234Z,58.46
2023-03-24T10:05:35.399Z,57.65
2023-03-24T10:07:45.225Z,56.59
2023-03-24T10:09:53.439Z,56.53
2023-03-24T10:12:07.240Z,56.76
2023-03-24T10:14:24.966Z,56.38
2023-03-24T10:16:37.557Z,56.57
2023-03-24T10:18:49.980Z,56.50
2023-03-24T10:20:58.304Z,55.81
2023-03-24T10:23:16.884Z,55.70
2023-03-24T10:25:28.958Z,55.77
2023-03-24T10:27:37.788Z,54.78
2023-03-24T10:29:43.139Z,55.19
2023-03-24T10:31:50.986Z,55.36
2023-03-24T10:33:54.586Z,55.38
2023-03-24T10:36:05.213Z,55.07
2023-03-24T10:38:18.734Z,55.09
2023-03-24T10:40:33.746Z,55.69
2023-03-24T10:42:38.631Z,55.30
2023-03-24T10:44:42.670Z,56.35
2023-03-24T10:46:49.454Z,56.21
2023-03-24T10:48:55.976Z,56.35
2023-03-24T10:51:00.468Z,55.73
2023-03-24T10:53:11.182Z,55.00
2023-03-24T10:55:19.432Z,55.40
2023-03-24T10:57:26.215Z,55.54
2023-03-24T10:59:33.140Z,55.92
2023-03-24T11:01:39.432Z,56.26
2023-03-24T11:03:43.365Z,57.17
2023-03-24T11:05:47.594Z,56.32
2023-03-24T11:07:53.928Z,55.93
2023-03-24T11:10:03.730Z,55.68
2023-03-24T11:12:08.695Z,56.09
2023-03-24T11:14:24.316Z,55.91
2023-03-24T11:16:31.966Z,55.36
2023-03-24T11:18:35.677Z,55.73
2023-03-24T11:20:40.819Z,55.58
2023-03-24T11:22:46.063Z,55.38
2023-03-24T11:24:52.053Z,55.06
2023-03-24T11:27:00.383Z,55.19
2023-03-24T11:29:07.882Z,56.31
2023-03-24T11:31:19.429Z,55.87
2023-03-24T11:33:34.958Z,55.71
2023-03-24T11:35:43.023Z,56.19
2023-03-24T11:37:48.828Z,57.84
2023-03-24T11:40:07.822Z,59.01
2023-03-24T11:42:18.744Z,58.30
2023-03-24T11:44:24.216Z,58.08
2023-03-24T11:46:29.595Z,58.67
2023-03-24T11:48:41.683Z,58.38
2023-03-24T11:50:46.623Z,58.43
2023-03-24T11:52:55.694Z,58.11
2023-03-24T11:54:59.095Z,58.38
2023-03-24T11:57:08.149Z,58.96
2023-03-24T11:59:20.307Z,59.00
2023-03-24T12:01:33.270Z,58.56
2023-03-24T12:04:08.363Z,58.11
2023-03-24T12:06:31.681Z,57.82
2023-03-24T12:08:47.709Z,58.23
2023-03-24T12:11:06.586Z,57.44
2023-03-24T12:13:22.369Z,56.60
2023-03-24T12:15:51.865Z,57.21
2023-03-24T12:18:08.956Z,56.99
2023-03-24T12:20:23.112Z,56.74
2023-03-24T12:22:39.375Z,57.24
2023-03-24T12:25:09.655Z,57.08
2023-03-24T12:27:22.064Z,57.23
2023-03-24T12:29:53.067Z,57.09
2023-03-24T12:32:17.755Z,55.99
2023-03-24T12:34:42.706Z,55.18
2023-03-24T12:36:51.579Z,55.07
2023-03-24T12:39:04.640Z,54.77
2023-03-24T12:41:25.140Z,55.01
2023-03-24T12:43:35.027Z,54.85
2023-03-24T12:45:44.635Z,54.61
2023-03-24T12:48:13.113Z,54.85
2023-03-24T12:50:33.668Z,54.37
2023-03-24T12:53:05.089Z,54.61
2023-03-24T12:55:17.928Z,54.77
2023-03-24T12:57:27.122Z,54.10
2023-03-24T12:59:35.696Z,53.70
2023-03-24T13:01:43.702Z,57.31
2023-03-24T13:03:50.128Z,60.05
2023-03-24T13:06:07.342Z,61.30
2023-03-24T13:08:29.812Z,63.54
2023-03-24T13:10:40.798Z,62.83
2023-03-24T13:12:53.900Z,63.33
2023-03-24T13:15:05.202Z,63.25
2023-03-24T13:17:19.781Z,62.85
2023-03-24T13:19:26.194Z,62.58
2023-03-24T13:21:35.462Z,61.13
2023-03-24T13:23:48.720Z,59.96
2023-03-24T13:26:00.694Z,59.44
2023-03-24T13:28:14.127Z,59.08
2023-03-24T13:30:31.588Z,57.46
2023-03-24T13:32:38.544Z,57.86
2023-03-24T13:34:46.044Z,58.82
2023-03-24T13:36:53.429Z,60.94
2023-03-24T13:38:59.350Z,62.19
2023-03-24T13:41:05.710Z,63.36
2023-03-24T13:43:13.491Z,64.46
2023-03-24T13:45:27.250Z,65.11
2023-03-24T13:47:49.737Z,65.87
2023-03-24T13:50:01.179Z,67.13
2023-03-24T13:52:08.878Z,66.95
2023-03-24T13:54:17.745Z,67.44
2023-03-24T13:56:29.165Z,67.54
2023-03-24T13:59:07.364Z,67.93
2023-03-24T14:01:32.771Z,68.60
2023-03-24T14:03:38.783Z,69.33
2023-03-24T14:05:57.938Z,71.77
2023-03-24T14:08:18.813Z,74.82
2023-03-24T14:10:41.796Z,77.01
2023-03-24T14:12:54.720Z,79.72
2023-03-24T14:15:15.647Z,82.42
2023-03-24T14:17:19.214Z,84.78
2023-03-24T14:19:28.870Z,87.15
2023-03-24T14:21:37.523Z,88.51
2023-03-24T14:23:44.313Z,89.12
2023-03-24T14:25:55.800Z,90.41
2023-03-24T14:28:34.163Z,91.76
2023-03-24T14:30:41.016Z,91.22
2023-03-24T14:32:47.813Z,92.34
2023-03-24T14:34:54.474Z,92.81
2023-03-24T14:37:01.620Z,92.94
2023-03-24T14:39:13.874Z,92.47
2023-03-24T14:41:27.812Z,91.61
2023-03-24T14:43:51.946Z,89.98
2023-03-24T14:46:01.742Z,89.11
2023-03-24T14:48:13.944Z,89.31
2023-03-24T14:50:22.038Z,90.12
2023-03-24T14:52:29.065Z,89.86
2023-03-24T14:54:42.216Z,88.73
2023-03-24T14:56:52.594Z,88.82
2023-03-24T14:58:58.081Z,89.01
2023-03-24T15:01:07.461Z,87.76
2023-03-24T15:03:21.010Z,88.30
2023-03-24T15:05:31.154Z,87.81
2023-03-24T15:07:34.726Z,87.84
2023-03-24T15:09:39.948Z,87.42
2023-03-24T15:11:45.139Z,86.78
2023-03-24T15:13:52.228Z,85.06
2023-03-24T15:15:56.119Z,83.44
2023-03-24T15:17:59.938Z,82.74
2023-03-24T15:20:07.829Z,82.79
2023-03-24T15:22:14.532Z,83.44
2023-03-24T15:24:30.863Z,82.92
2023-03-24T15:26:35.911Z,81.67
2023-03-24T15:28:39.503Z,82.81
2023-03-24T15:30:43.106Z,84.26
2023-03-24T15:32:47.869Z,85.08
2023-03-24T15:34:53.802Z,86.13
2023-03-24T15:36:59.779Z,87.24
2023-03-24T15:39:06.080Z,87.93
2023-03-24T15:41:12.948Z,89.45
2023-03-24T15:43:22.305Z,89.56
2023-03-24T15:45:30.405Z,89.52
2023-03-24T15:47:38.583Z,89.90
2023-03-24T15:49:52.419Z,90.01
2023-03-24T15:52:00.076Z,90.56
2023-03-24T15:54:03.918Z,90.00
2023-03-24T15:56:19.131Z,88.87
2023-03-24T15:58:28.031Z,88.54
2023-03-24T16:00:38.999Z,88.20
2023-03-24T16:02:47.028Z,87.45
2023-03-24T16:05:00.279Z,87.35
2023-03-24T16:07:29.751Z,87.38
2023-03-24T16:09:38.151Z,87.21
2023-03-24T16:11:42.223Z,86.85
2023-03-24T16:13:47.499Z,86.02
2023-03-24T16:15:57.973Z,84.46
2023-03-24T16:18:01.597Z,84.59
2023-03-24T16:20:09.118Z,85.13
2023-03-24T16:22:13.440Z,85.05
2023-03-24T16:24:17.332Z,84.50
2023-03-24T16:26:22.841Z,83.12
2023-03-24T16:28:27.816Z,82.79
2023-03-24T16:30:38.109Z,82.51
2023-03-24T16:32:41.856Z,82.31
2023-03-24T16:34:45.532Z,80.53
2023-03-24T16:36:49.471Z,79.78
2023-03-24T16:38:53.127Z,80.16
2023-03-24T16:40:57.881Z,80.16
2023-03-24T16:43:02.353Z,79.89
2023-03-24T16:45:06.773Z,80.39
2023-03-24T16:47:12.528Z,80.28
2023-03-24T16:49:18.258Z,81.36
2023-03-24T16:51:22.733Z,81.73
2023-03-24T16:53:26.177Z,81.71
2023-03-24T16:55:29.878Z,81.88
2023-03-24T16:57:33.337Z,81.87
2023-03-24T16:59:37.015Z,81.76
2023-03-24T17:01:42.187Z,81.85
2023-03-24T17:03:50.041Z,82.17
2023-03-24T17:05:53.779Z,81.22
2023-03-24T17:07:58.092Z,80.79
2023-03-24T17:10:01.824Z,81.10
2023-03-24T17:12:05.915Z,80.94
2023-03-24T17:14:12.488Z,80.86
2023-03-24T17:16:17.680Z,81.30
2023-03-24T17:18:21.314Z,81.60
2023-03-24T17:20:27.092Z,81.78
2023-03-24T17:22:30.886Z,81.54
2023-03-24T17:24:38.179Z,82.07
2023-03-24T17:26:42.749Z,81.96
2023-03-24T17:28:46.333Z,82.24
2023-03-24T17:30:50.175Z,82.06
2023-03-24T17:32:55.023Z,83.25
2023-03-24T17:34:58.606Z,82.77
2023-03-24T17:37:03.540Z,83.97
2023-03-24T17:39:10.586Z,83.44
2023-03-24T17:41:14.499Z,83.15
2023-03-24T17:43:18.253Z,83.69
2023-03-24T17:45:21.948Z,83.49
2023-03-24T17:47:25.495Z,84.08
2023-03-24T17:49:29.245Z,83.86
2023-03-24T17:51:32.937Z,84.48
2023-03-24T17:53:38.305Z,84.05
2023-03-24T17:55:41.969Z,84.68
2023-03-24T17:57:45.847Z,84.36
2023-03-24T17:59:50.235Z,84.76
2023-03-24T18:01:55.017Z,85.12
2023-03-24T18:03:58.485Z,84.52
2023-03-24T18:06:08.798Z,85.33
2023-03-24T18:08:12.943Z,85.80
2023-03-24T18:10:18.722Z,85.99
2023-03-24T18:12:22.456Z,85.99
2023-03-24T18:14:26.507Z,86.35
2023-03-24T18:16:31.100Z,86.92
2023-03-24T18:18:35.251Z,87.62
2023-03-24T18:20:39.490Z,87.70
2023-03-24T18:22:43.492Z,88.42
2023-03-24T18:24:47.162Z,89.07
2023-03-24T18:26:51.942Z,89.08
2023-03-24T18:28:55.933Z,88.66
2023-03-24T18:31:00.665Z,88.98
2023-03-24T18:33:04.664Z,89.49
2023-03-24T18:35:10.142Z,88.85
2023-03-24T18:37:15.567Z,89.35
2023-03-24T18:39:19.192Z,89.15
2023-03-24T18:41:24.734Z,89.26
2023-03-24T18:43:30.532Z,88.97
2023-03-24T18:45:34.062Z,88.73
2023-03-24T18:47:37.938Z,88.85
2023-03-24T18:49:41.650Z,89.47
2023-03-24T18:51:46.927Z,89.88
2023-03-24T18:53:51.493Z,89.66
2023-03-24T18:55:55.083Z,89.76
2023-03-24T18:57:58.748Z,90.11
2023-03-24T19:00:07.011Z,89.91
2023-03-24T19:02:12.557Z,89.46
2023-03-24T19:04:16.738Z,89.66
2023-03-24T19:06:21.273Z,89.79
2023-03-24T19:08:24.892Z,89.97
2023-03-24T19:10:28.510Z,89.87
2023-03-24T19:12:32.170Z,90.39
2023-03-24T19:14:35.748Z,90.53
2023-03-24T19:16:40.946Z,90.86
2023-03-24T19:18:45.131Z,91.41
2023-03-24T19:20:49.066Z,91.56
2023-03-24T19:22:52.643Z,92.23
2023-03-24T19:24:56.273Z,92.80
2023-03-24T19:26:59.899Z,93.35
2023-03-24T19:29:03.526Z,93.62
2023-03-24T19:31:09.860Z,94.76
2023-03-24T19:33:15.011Z,94.41
2023-03-24T19:35:18.429Z,94.94
2023-03-24T19:37:23.353Z,95.09
2023-03-24T19:39:27.255Z,95.30
2023-03-24T19:41:31.053Z,96.05
2023-03-24T19:43:36.105Z,96.73
2023-03-24T19:45:43.113Z,97.58
2023-03-24T19:47:47.259Z,98.59
2023-03-24T19:49:56.942Z,99.19
2023-03-24T19:52:00.533Z,99.93
2023-03-24T19:54:04.128Z,100.00
2023-03-24T19:56:08.737Z,100.00
2023-03-24T19:58:12.419Z,100.00
2023-03-24T20:00:17.169Z,100.00
2023-03-24T20:02:21.565Z,100.00
2023-03-24T20:04:25.289Z,100.00
2023-03-24T20:06:30.583Z,100.00
2023-03-24T20:08:34.281Z,100.00
2023-03-24T20:10:40.210Z,100.00
2023-03-24T20:12:43.692Z,100.00
2023-03-24T20:14:47.479Z,100.00
2023-03-24T20:16:50.957Z,100.00
2023-03-24T20:18:54.562Z,100.00
2023-03-24T20:21:01.483Z,100.00
2023-03-24T20:23:06.902Z,100.00
2023-03-24T20:25:11.164Z,100.00
2023-03-24T20:27:16.162Z,100.00
2023-03-24T20:29:19.726Z,99.60
2023-03-24T20:31:24.783Z,99.93
2023-03-24T20:33:29.920Z,99.86
2023-03-24T20:35:35.165Z,99.48
2023-03-24T20:37:40.133Z,100.00
2023-03-24T20:39:45.193Z,100.00
2023-03-24T20:41:48.369Z,99.60
2023-03-24T20:43:52.272Z,100.00
2023-03-24T20:45:57.318Z,100.00
2023-03-24T20:48:01.234Z,99.87
2023-03-24T20:50:06.203Z,99.92
2023-03-24T20:52:09.536Z,100.00
2023-03-24T20:54:13.573Z,99.69
2023-03-24T20:56:19.078Z,99.76
2023-03-24T20:58:22.541Z,99.99
2023-03-24T21:00:28.665Z,99.37
2023-03-24T21:02:37.232Z,99.13
2023-03-24T21:04:41.094Z,99.63
2023-03-24T21:06:44.636Z,98.89
2023-03-24T21:08:49.591Z,98.96
2023-03-24T21:10:57.344Z,98.19
2023-03-24T21:13:02.519Z,98.82
2023-03-24T21:15:05.925Z,98.20
2023-03-24T21:17:09.475Z,98.24
2023-03-24T21:19:13.343Z,98.13
2023-03-24T21:21:17.562Z,98.42
2023-03-24T21:23:21.323Z,98.21
2023-03-24T21:25:27.024Z,98.09
2023-03-24T21:27:30.809Z,97.61
2023-03-24T21:29:36.207Z,97.39
2023-03-24T21:31:41.852Z,97.49
2023-03-24T21:33:45.729Z,97.42
2023-03-24T21:35:49.365Z,97.39
2023-03-24T21:37:54.023Z,97.47
2023-03-24T21:39:57.967Z,97.24
2023-03-24T21:42:03.117Z,96.82
2023-03-24T21:44:08.534Z,96.78
2023-03-24T21:46:20.651Z,97.01
2023-03-24T21:48:24.891Z,97.00
2023-03-24T21:50:29.264Z,96.86
2023-03-24T21:52:36.679Z,97.08
2023-03-24T21:54:41.972Z,96.73
2023-03-24T21:56:45.639Z,96.95
2023-03-24T21:58:50.255Z,96.74
2023-03-24T22:00:56.743Z,96.75
2023-03-24T22:03:02.362Z,97.49
2023-03-24T22:05:07.214Z,97.45
2023-03-24T22:07:11.116Z,97.23
2023-03-24T22:09:14.698Z,97.04
2023-03-24T22:11:19.842Z,97.41
2023-03-24T22:13:23.441Z,97.94
2023-03-24T22:15:27.007Z,97.35
2023-03-24T22:17:30.603Z,97.57
2023-03-24T22:19:35.681Z,97.41
2023-03-24T22:21:39.763Z,97.85
2023-03-24T22:23:43.753Z,97.81
2023-03-24T22:25:47.475Z,98.47
2023-03-24T22:27:53.016Z,97.96
2023-03-24T22:29:56.797Z,98.67
2023-03-24T22:32:00.861Z,98.27
2023-03-24T22:34:04.672Z,99.20
2023-03-24T22:36:11.260Z,98.99
2023-03-24T22:38:16.180Z,99.50
2023-03-24T22:40:19.891Z,99.47
2023-03-24T22:42:23.437Z,99.68
2023-03-24T22:44:27.067Z,99.93
2023-03-24T22:46:30.875Z,100.00
2023-03-24T22:48:34.555Z,100.00
2023-03-24T22:50:41.458Z,100.00
2023-03-24T22:52:46.550Z,100.00
2023-03-24T22:54:49.764Z,100.00
2023-03-24T22:56:53.594Z,100.00
2023-03-24T22:58:57.400Z,100.00
2023-03-24T23:01:02.809Z,100.00
2023-03-24T23:03:06.043Z,100.00
2023-03-24T23:05:10.293Z,100.00
2023-03-24T23:07:14.068Z,100.00
2023-03-24T23:09:19.101Z,100.00
2023-03-24T23:11:22.903Z,100.00
2023-03-24T23:13:26.717Z,100.00
2023-03-24T23:15:30.650Z,100.00
2023-03-24T23:17:34.175Z,100.00
2023-03-24T23:19:38.035Z,100.00
2023-03-24T23:21:42.528Z,100.00
2023-03-24T23:23:46.268Z,100.00
2023-03-24T23:25:51.792Z,100.00
2023-03-24T23:27:55.475Z,100.00
2023-03-24T23:29:58.978Z,100.00
2023-03-24T23:32:02.693Z,100.00
2023-03-24T23:34:07.783Z,100.00
2023-03-24T23:36:17.144Z,100.00
2023-03-24T23:38:22.752Z,100.00
2023-03-24T23:40:26.787Z,100.00
2023-03-24T23:42:33.860Z,100.00
2023-03-24T23:44:38.562Z,100.00
2023-03-24T23:46:42.164Z,100.00
2023-03-24T23:48:45.754Z,100.00
2023-03-24T23:50:56.898Z,100.00
2023-03-24T23:53:00.763Z,100.00
2023-03-24T23:55:04.949Z,100.00
2023-03-24T23:57:08.673Z,100.00
2023-03-24T23:59:14.027Z,100.00
